METAR AND TAF INFORMATION
METAR FOR VTBS
ADDS - METARS form results

(2058 UTC 21 March 2019)
Data provider http://aviationweather.gov/metar/data/
 
METAR text: VTBS 212030Z 20008KT 8000 FEW020 28/25 Q1008 NOSIG
Conditions at: VTBS (CHON BURI/SATTAH, TH) observed 2030 UTC 21 March 2019
Temperature: 28.0°C (82°F)
Dewpoint: 25.0°C (77°F) [RH = 84%]
Pressure (altimeter): 29.76 inches Hg (1008.0 mb)
Winds: from the SSW (200 degrees) at 9 MPH (8 knots; 4.1 m/s)
Visibility: 5 miles ( 8 km)
Ceiling: at least 12,000 feet AGL
Clouds: few clouds at 2000 feet AGL
Weather: no significant weather observed at this time

METAR text: VTBS 212000Z 19010KT 8000 FEW017 28/26 Q1008 NOSIG
Conditions at: VTBS (CHON BURI/SATTAH, TH) observed 2000 UTC 21 March 2019
Temperature: 28.0°C (82°F)
Dewpoint: 26.0°C (79°F) [RH = 89%]
Pressure (altimeter): 29.76 inches Hg (1008.0 mb)
Winds: from the S (190 degrees) at 12 MPH (10 knots; 5.1 m/s)
Visibility: 5 miles ( 8 km)
Ceiling: at least 12,000 feet AGL
Clouds: few clouds at 1700 feet AGL
Weather: no significant weather observed at this time

Forecast for: VTBS (CHON BURI/SATTAH, TH)
Text: TAF VTBS 211700Z 2118/2224 20008KT 9999 FEW020
Forecast period: 1800 UTC 21 March 2019 to 0000 UTC 23 March 2019
Forecast type: FROM: standard forecast or significant change
Winds: from the SSW (200 degrees) at 9 MPH (8 knots; 4.1 m/s)
Visibility: 6 or more miles 10+ km)
Ceiling: at least 12,000 feet AGL
Clouds: few clouds at 2000 feet AGL
Weather: no significant weather forecast for this period

 AIRPORT MAP

 RUNWAY INFORMATION
Runway 01L Runway length 12139 ft Runway width 197 ft
Runway elevation 0 ft Runway displaced threshold 0 ft Runway heading 14
Runway 19R Runway length 12139 ft Runway width 197 ft
Runway elevation 0 ft Runway displaced threshold 0 ft Runway heading 194
Runway 01R Runway length 13123 ft Runway width 197 ft
Runway elevation 0 ft Runway displaced threshold 0 ft Runway heading 14
Runway 19L Runway length 13123 ft Runway width 197 ft
Runway elevation 0 ft Runway displaced threshold 0 ft Runway heading 194

 AIRPORT FREQUENCIES
Type ATIS Name Frequency 127.8 MHZ
Type GROUND (EA Name Frequency 121.65 MHZ
Type GROUND (MA Name Frequency 121.75 MHZ
Type GROUND (WE Name Frequency 121.95 MHZ
Type TOWER (01L Name Frequency 119 MHZ
Type TOWER (01R Name Frequency 118.2 MHZ

 AIRPORT NEAR NAVIGATION AIDS
Type VOR-DME Name Suvarnabhumi Intl Frequency 111400 KHZ



Powered by Virtual Airlines Manager [v2.6.2]